createdAt,value
2018-08-13T00:01:22.218Z,100486.00
2018-08-13T00:03:51.974Z,100481.00
2018-08-13T00:06:29.086Z,100473.00
2018-08-13T00:08:58.871Z,100465.00
2018-08-13T00:11:28.675Z,100471.00
2018-08-13T00:13:59.068Z,100471.00
2018-08-13T00:16:28.896Z,100472.00
2018-08-13T00:18:58.594Z,100473.00
2018-08-13T00:21:28.342Z,100478.00
2018-08-13T00:23:58.114Z,100472.00
2018-08-13T00:26:28.001Z,100480.00
2018-08-13T00:28:57.779Z,100474.00
2018-08-13T00:31:27.542Z,100464.00
2018-08-13T00:33:57.266Z,100467.00
2018-08-13T00:36:26.941Z,100459.00
2018-08-13T00:38:56.730Z,100444.00
2018-08-13T00:41:26.491Z,100438.00
2018-08-13T00:43:56.368Z,100438.00
2018-08-13T00:46:26.143Z,100445.00
2018-08-13T00:48:55.887Z,100438.00
2018-08-13T00:51:25.570Z,100442.00
2018-08-13T00:53:55.381Z,100442.00
2018-08-13T00:56:25.127Z,100437.00
2018-08-13T00:58:54.855Z,100430.00
2018-08-13T01:01:24.673Z,100416.00
2018-08-13T01:03:54.508Z,100416.00
2018-08-13T01:06:24.232Z,100411.00
2018-08-13T01:08:54.006Z,100398.00
2018-08-13T01:11:23.693Z,100397.00
2018-08-13T01:13:53.394Z,100391.00
2018-08-13T01:16:23.142Z,100390.00
2018-08-13T01:18:52.947Z,100389.00
2018-08-13T01:21:23.317Z,100383.00
2018-08-13T01:23:53.031Z,100381.00
2018-08-13T01:26:22.815Z,100379.00
2018-08-13T01:28:52.577Z,100374.00
2018-08-13T01:31:22.345Z,100386.00
2018-08-13T01:33:51.997Z,100379.00
2018-08-13T01:36:21.662Z,100391.00
2018-08-13T01:38:51.331Z,100383.00
2018-08-13T01:41:21.106Z,100374.00
2018-08-13T01:43:50.853Z,100373.00
2018-08-13T01:46:21.361Z,100372.00
2018-08-13T01:48:51.159Z,100366.00
2018-08-13T01:51:20.810Z,100363.00
2018-08-13T01:53:50.584Z,100367.00
2018-08-13T01:56:20.262Z,100369.00
2018-08-13T01:58:50.002Z,100359.00
2018-08-13T02:01:19.976Z,100361.00
2018-08-13T02:03:49.676Z,100354.00
2018-08-13T02:06:19.257Z,100358.00
2018-08-13T02:08:49.081Z,100353.00
2018-08-13T02:11:18.863Z,100356.00
2018-08-13T02:13:48.566Z,100353.00
2018-08-13T02:16:18.249Z,100345.00
2018-08-13T02:18:47.936Z,100343.00
2018-08-13T02:21:17.661Z,100349.00
2018-08-13T02:23:47.363Z,100356.00
2018-08-13T02:26:16.969Z,100364.00
2018-08-13T02:28:46.641Z,100356.00
2018-08-13T02:31:16.383Z,100367.00
2018-08-13T02:33:46.132Z,100364.00
2018-08-13T02:36:15.863Z,100364.00
2018-08-13T02:38:45.681Z,100377.00
2018-08-13T02:41:15.399Z,100381.00
2018-08-13T02:43:44.985Z,100372.00
2018-08-13T02:46:14.757Z,100378.00
2018-08-13T02:48:44.612Z,100372.00
2018-08-13T02:51:14.160Z,100367.00
2018-08-13T02:53:43.866Z,100381.00
2018-08-13T02:56:13.566Z,100370.00
2018-08-13T02:58:43.251Z,100381.00
2018-08-13T03:01:12.937Z,100380.00
2018-08-13T03:03:42.538Z,100376.00
2018-08-13T03:06:12.178Z,100386.00
2018-08-13T03:08:41.854Z,100401.00
2018-08-13T03:11:11.454Z,100397.00
2018-08-13T03:13:41.107Z,100409.00
2018-08-13T03:16:10.854Z,100409.00
2018-08-13T03:18:40.526Z,100416.00
2018-08-13T03:21:10.366Z,100416.00
2018-08-13T03:23:40.079Z,100410.00
2018-08-13T03:26:10.123Z,100401.00
2018-08-13T03:28:39.861Z,100409.00
2018-08-13T03:31:09.477Z,100394.00
2018-08-13T03:33:39.127Z,100391.00
2018-08-13T03:36:08.907Z,100379.00
2018-08-13T03:38:38.626Z,100388.00
2018-08-13T03:41:08.342Z,100377.00
2018-08-13T03:43:38.063Z,100389.00
2018-08-13T03:46:07.701Z,100385.00
2018-08-13T03:48:37.416Z,100382.00
2018-08-13T03:51:07.106Z,100375.00
2018-08-13T03:53:36.635Z,100397.00
2018-08-13T03:56:07.605Z,100418.00
2018-08-13T03:58:37.261Z,100451.00
2018-08-13T04:01:07.068Z,100447.00
2018-08-13T04:03:36.873Z,100450.00
2018-08-13T04:06:06.674Z,100444.00
2018-08-13T04:08:36.326Z,100434.00
2018-08-13T04:11:06.246Z,100437.00
2018-08-13T04:13:35.860Z,100423.00
2018-08-13T04:16:05.722Z,100423.00
2018-08-13T04:18:35.400Z,100416.00
2018-08-13T04:21:05.378Z,100422.00
2018-08-13T04:23:35.170Z,100426.00
2018-08-13T04:26:04.740Z,100427.00
2018-08-13T04:28:34.424Z,100423.00
2018-08-13T04:31:04.142Z,100416.00
2018-08-13T04:33:33.796Z,100408.00
2018-08-13T04:36:03.480Z,100399.00
2018-08-13T04:38:33.279Z,100390.00
2018-08-13T04:41:03.058Z,100383.00
2018-08-13T04:43:32.741Z,100376.00
2018-08-13T04:46:02.466Z,100369.00
2018-08-13T04:48:32.213Z,100365.00
2018-08-13T04:51:01.878Z,100359.00
2018-08-13T04:53:45.227Z,100351.00
2018-08-13T04:56:14.857Z,100334.00
2018-08-13T04:58:44.614Z,100374.00
2018-08-13T05:01:14.249Z,100373.00
2018-08-13T05:03:44.093Z,100357.00
2018-08-13T05:06:13.747Z,100358.00
2018-08-13T05:08:43.545Z,100358.00
2018-08-13T05:11:13.321Z,100366.00
2018-08-13T05:13:42.925Z,100344.00
2018-08-13T05:16:12.565Z,100325.00
2018-08-13T05:18:42.296Z,100305.00
2018-08-13T05:21:12.063Z,100302.00
2018-08-13T05:23:41.639Z,100301.00
2018-08-13T05:26:11.235Z,100317.00
2018-08-13T05:28:40.845Z,100321.00
2018-08-13T05:31:10.586Z,100322.00
2018-08-13T05:33:40.323Z,100322.00
2018-08-13T05:36:09.966Z,100304.00
2018-08-13T05:38:39.533Z,100306.00
2018-08-13T05:41:09.272Z,100307.00
2018-08-13T05:43:39.080Z,100306.00
2018-08-13T05:46:08.721Z,100316.00
2018-08-13T05:48:38.454Z,100305.00
2018-08-13T05:51:08.204Z,100275.00
2018-08-13T05:53:37.937Z,100269.00
2018-08-13T05:56:07.799Z,100272.00
2018-08-13T05:58:37.500Z,100303.00
2018-08-13T06:01:07.544Z,100307.00
2018-08-13T06:03:37.326Z,100303.00
2018-08-13T06:06:06.958Z,100309.00
2018-08-13T06:08:36.666Z,100305.00
2018-08-13T06:11:06.379Z,100308.00
2018-08-13T06:13:36.029Z,100302.00
2018-08-13T06:16:05.743Z,100302.00
2018-08-13T06:18:35.349Z,100305.00
2018-08-13T06:21:05.159Z,100306.00
2018-08-13T06:23:34.804Z,100319.00
2018-08-13T06:26:04.632Z,100323.00
2018-08-13T06:28:34.250Z,100317.00
2018-08-13T06:31:03.892Z,100322.00
2018-08-13T06:33:33.519Z,100322.00
2018-08-13T06:36:03.322Z,100318.00
2018-08-13T06:38:32.885Z,100326.00
2018-08-13T06:41:02.512Z,100335.00
2018-08-13T06:43:32.238Z,100330.00
2018-08-13T06:46:01.951Z,100335.00
2018-08-13T06:48:31.738Z,100335.00
2018-08-13T06:51:01.454Z,100335.00
2018-08-13T06:53:31.146Z,100335.00
2018-08-13T06:56:00.918Z,100335.00
2018-08-13T06:58:30.625Z,100342.00
2018-08-13T07:01:00.325Z,100335.00
2018-08-13T07:03:29.993Z,100341.00
2018-08-13T07:05:59.664Z,100337.00
2018-08-13T07:08:29.294Z,100339.00
2018-08-13T07:10:59.026Z,100335.00
2018-08-13T07:13:28.701Z,100338.00
2018-08-13T07:15:58.387Z,100341.00
2018-08-13T07:18:28.133Z,100346.00
2018-08-13T07:20:57.789Z,100343.00
2018-08-13T07:23:27.449Z,100339.00
2018-08-13T07:25:57.213Z,100342.00
2018-08-13T07:28:26.857Z,100344.00
2018-08-13T07:30:56.499Z,100348.00
2018-08-13T07:33:26.199Z,100354.00
2018-08-13T07:35:56.011Z,100357.00
2018-08-13T07:38:25.690Z,100355.00
2018-08-13T07:40:56.065Z,100356.00
2018-08-13T07:43:25.738Z,100364.00
2018-08-13T07:45:55.404Z,100366.00
2018-08-13T07:48:25.216Z,100373.00
2018-08-13T07:50:54.926Z,100363.00
2018-08-13T07:53:24.560Z,100367.00
2018-08-13T07:55:54.254Z,100375.00
2018-08-13T07:58:24.838Z,100374.00
2018-08-13T08:00:54.530Z,100370.00
2018-08-13T08:03:24.317Z,100382.00
2018-08-13T08:05:54.142Z,100374.00
2018-08-13T08:08:23.911Z,100372.00
2018-08-13T08:10:53.612Z,100377.00
2018-08-13T08:13:23.301Z,100375.00
2018-08-13T08:15:52.906Z,100366.00
2018-08-13T08:18:22.608Z,100371.00
2018-08-13T08:20:52.257Z,100381.00
2018-08-13T08:23:21.870Z,100374.00
2018-08-13T08:25:51.668Z,100378.00
2018-08-13T08:28:21.303Z,100378.00
2018-08-13T08:30:51.026Z,100388.00
2018-08-13T08:33:20.734Z,100385.00
2018-08-13T08:35:50.507Z,100386.00
2018-08-13T08:38:20.185Z,100389.00
2018-08-13T08:40:49.952Z,100388.00
2018-08-13T08:43:19.515Z,100384.00
2018-08-13T08:45:49.208Z,100381.00
2018-08-13T08:48:18.810Z,100390.00
2018-08-13T08:50:48.464Z,100377.00
2018-08-13T08:53:18.108Z,100377.00
2018-08-13T08:55:47.821Z,100379.00
2018-08-13T08:58:17.557Z,100384.00
2018-08-13T09:00:47.307Z,100384.00
2018-08-13T09:03:17.035Z,100389.00
2018-08-13T09:05:46.756Z,100379.00
2018-08-13T09:08:16.384Z,100374.00
2018-08-13T09:10:46.967Z,100373.00
2018-08-13T09:13:16.622Z,100369.00
2018-08-13T09:15:46.200Z,100372.00
2018-08-13T09:18:32.394Z,100374.00
2018-08-13T09:21:18.860Z,100379.00
2018-08-13T09:24:05.096Z,100380.00
2018-08-13T09:26:51.552Z,100380.00
2018-08-13T09:29:37.771Z,100383.00
2018-08-13T09:32:34.722Z,100381.00
2018-08-13T09:35:14.251Z,100375.00
2018-08-13T09:37:43.902Z,100383.00
2018-08-13T09:40:13.578Z,100372.00
2018-08-13T09:42:43.260Z,100373.00
2018-08-13T09:45:12.995Z,100366.00
2018-08-13T09:47:42.668Z,100359.00
2018-08-13T09:50:15.367Z,100358.00
2018-08-13T09:52:45.781Z,100343.00
2018-08-13T09:55:16.134Z,100348.00
2018-08-13T09:57:46.738Z,100345.00
2018-08-13T10:00:23.837Z,100341.00
2018-08-13T10:02:53.631Z,100342.00
2018-08-13T10:05:23.347Z,100340.00
2018-08-13T10:07:52.994Z,100340.00
2018-08-13T10:10:22.700Z,100341.00
2018-08-13T10:12:52.434Z,100335.00
2018-08-13T10:15:22.150Z,100340.00
2018-08-13T10:17:51.948Z,100343.00
2018-08-13T10:20:22.249Z,100339.00
2018-08-13T10:22:51.994Z,100343.00
2018-08-13T10:25:25.041Z,100346.00
2018-08-13T10:27:54.752Z,100341.00
2018-08-13T10:30:24.371Z,100343.00
2018-08-13T10:32:53.986Z,100354.00
2018-08-13T10:35:23.642Z,100344.00
2018-08-13T10:37:53.347Z,100355.00
2018-08-13T10:40:23.053Z,100355.00
2018-08-13T10:42:52.731Z,100357.00
2018-08-13T10:45:22.346Z,100350.00
2018-08-13T10:47:52.034Z,100343.00
2018-08-13T10:50:21.721Z,100332.00
2018-08-13T10:52:51.394Z,100320.00
2018-08-13T10:55:21.100Z,100320.00
2018-08-13T10:57:50.792Z,100320.00
2018-08-13T11:00:20.488Z,100312.00
2018-08-13T11:02:50.215Z,100303.00
2018-08-13T11:05:19.805Z,100301.00
2018-08-13T11:07:49.474Z,100303.00
2018-08-13T11:10:19.121Z,100305.00
2018-08-13T11:12:48.777Z,100307.00
2018-08-13T11:15:20.323Z,100301.00
2018-08-13T11:17:50.160Z,100306.00
2018-08-13T11:20:19.989Z,100299.00
2018-08-13T11:22:49.717Z,100290.00
2018-08-13T11:25:19.499Z,100292.00
2018-08-13T11:27:49.127Z,100301.00
2018-08-13T11:30:18.816Z,100302.00
2018-08-13T11:32:48.551Z,100307.00
2018-08-13T11:35:18.293Z,100315.00
2018-08-13T11:37:47.954Z,100305.00
2018-08-13T11:40:18.507Z,100306.00
2018-08-13T11:42:48.108Z,100299.00
2018-08-13T11:45:17.841Z,100301.00
2018-08-13T11:47:47.568Z,100295.00
2018-08-13T11:50:18.600Z,100297.00
2018-08-13T11:52:49.534Z,100290.00
2018-08-13T11:55:19.989Z,100290.00
2018-08-13T11:57:50.466Z,100291.00
2018-08-13T12:00:20.238Z,100291.00
2018-08-13T12:02:49.997Z,100302.00
2018-08-13T12:05:19.742Z,100293.00
2018-08-13T12:07:49.595Z,100300.00
2018-08-13T12:10:19.300Z,100288.00
2018-08-13T12:12:49.065Z,100291.00
2018-08-13T12:15:18.782Z,100289.00
2018-08-13T12:17:48.492Z,100288.00
2018-08-13T12:20:20.157Z,100288.00
2018-08-13T12:22:50.109Z,100287.00
2018-08-13T12:25:25.865Z,100286.00
2018-08-13T12:27:55.857Z,100273.00
2018-08-13T12:30:25.568Z,100268.00
2018-08-13T12:32:55.714Z,100261.00
2018-08-13T12:35:25.548Z,100264.00
2018-08-13T12:37:55.258Z,100255.00
2018-08-13T12:40:24.986Z,100252.00
2018-08-13T12:42:54.737Z,100254.00
2018-08-13T12:45:24.611Z,100273.00
2018-08-13T12:47:54.492Z,100272.00
2018-08-13T12:50:24.282Z,100275.00
2018-08-13T12:52:53.951Z,100282.00
2018-08-13T12:55:23.785Z,100286.00
2018-08-13T12:57:53.504Z,100302.00
2018-08-13T13:00:23.249Z,100307.00
2018-08-13T13:02:53.090Z,100318.00
2018-08-13T13:05:22.765Z,100304.00
2018-08-13T13:07:52.459Z,100312.00
2018-08-13T13:10:22.081Z,100320.00
2018-08-13T13:12:52.097Z,100337.00
2018-08-13T13:15:22.028Z,100335.00
2018-08-13T13:17:51.735Z,100351.00
2018-08-13T13:20:22.730Z,100360.00
2018-08-13T13:22:52.779Z,100366.00
2018-08-13T13:25:22.502Z,100359.00
2018-08-13T13:27:52.192Z,100379.00
2018-08-13T13:30:22.126Z,100368.00
2018-08-13T13:32:51.934Z,100365.00
2018-08-13T13:35:21.592Z,100365.00
2018-08-13T13:37:51.690Z,100356.00
2018-08-13T13:40:21.431Z,100346.00
2018-08-13T13:42:51.162Z,100347.00
2018-08-13T13:45:21.030Z,100339.00
2018-08-13T13:47:50.768Z,100335.00
2018-08-13T13:50:20.526Z,100338.00
2018-08-13T13:52:50.557Z,100348.00
2018-08-13T13:55:20.478Z,100353.00
2018-08-13T13:57:50.514Z,100359.00
2018-08-13T14:00:21.460Z,100352.00
2018-08-13T14:02:52.477Z,100362.00
2018-08-13T14:05:22.670Z,100362.00
2018-08-13T14:07:52.366Z,100359.00
2018-08-13T14:10:23.329Z,100364.00
2018-08-13T14:12:53.357Z,100367.00
2018-08-13T14:15:23.950Z,100361.00
2018-08-13T14:17:53.640Z,100361.00
2018-08-13T14:20:23.413Z,100354.00
2018-08-13T14:22:53.381Z,100355.00
2018-08-13T14:25:23.195Z,100357.00
2018-08-13T14:27:52.999Z,100354.00
2018-08-13T14:30:25.035Z,100349.00
2018-08-13T14:32:55.188Z,100352.00
2018-08-13T14:35:25.861Z,100346.00
2018-08-13T14:37:55.666Z,100349.00
2018-08-13T14:40:25.470Z,100344.00
2018-08-13T14:42:55.202Z,100356.00
2018-08-13T14:45:25.140Z,100339.00
2018-08-13T14:47:55.230Z,100350.00
2018-08-13T14:50:25.151Z,100336.00
2018-08-13T14:52:54.992Z,100350.00
2018-08-13T14:55:24.918Z,100340.00
2018-08-13T14:57:54.630Z,100345.00
2018-08-13T15:00:37.881Z,100345.00
2018-08-13T15:03:12.231Z,100349.00
2018-08-13T15:05:42.485Z,100347.00
2018-08-13T15:08:12.346Z,100349.00
2018-08-13T15:10:42.178Z,100359.00
2018-08-13T15:13:14.849Z,100360.00
2018-08-13T15:15:44.615Z,100361.00
2018-08-13T15:18:14.634Z,100357.00
2018-08-13T15:20:44.358Z,100356.00
2018-08-13T15:23:14.278Z,100361.00
2018-08-13T15:25:44.052Z,100353.00
2018-08-13T15:28:13.966Z,100349.00
2018-08-13T15:30:43.962Z,100347.00
2018-08-13T15:33:15.541Z,100352.00
2018-08-13T15:35:45.879Z,100358.00
2018-08-13T15:38:29.670Z,100349.00
2018-08-13T15:44:01.043Z,100350.00
2018-08-13T15:46:31.076Z,100353.00
2018-08-13T15:49:01.151Z,100357.00
2018-08-13T15:51:31.119Z,100353.00
2018-08-13T15:54:01.239Z,100358.00
2018-08-13T15:56:31.007Z,100350.00
2018-08-13T15:59:01.164Z,100353.00
2018-08-13T16:01:31.691Z,100358.00
2018-08-13T16:04:01.839Z,100363.00
2018-08-13T16:06:32.842Z,100371.00
2018-08-13T16:09:03.329Z,100366.00
2018-08-13T16:11:33.339Z,100368.00
2018-08-13T16:14:04.911Z,100368.00
2018-08-13T16:16:36.987Z,100377.00
2018-08-13T16:19:28.875Z,100375.00
2018-08-13T16:21:59.225Z,100383.00
2018-08-13T16:24:29.024Z,100385.00
2018-08-13T16:26:59.285Z,100399.00
2018-08-13T16:29:29.210Z,100400.00
2018-08-13T16:32:00.654Z,100395.00
2018-08-13T16:34:31.157Z,100404.00
2018-08-13T16:37:01.391Z,100395.00
2018-08-13T16:39:33.667Z,100401.00
2018-08-13T16:42:03.885Z,100401.00
2018-08-13T16:44:34.155Z,100404.00
2018-08-13T16:47:04.013Z,100396.00
2018-08-13T16:49:34.251Z,100395.00
2018-08-13T16:52:05.028Z,100394.00
2018-08-13T16:54:35.042Z,100392.00
2018-08-13T16:57:05.941Z,100396.00
2018-08-13T16:59:36.758Z,100397.00
2018-08-13T17:02:12.338Z,100395.00
2018-08-13T17:04:44.836Z,100404.00
2018-08-13T17:07:18.857Z,100406.00
2018-08-13T17:09:48.680Z,100401.00
2018-08-13T17:12:26.166Z,100406.00
2018-08-13T17:14:56.099Z,100403.00
2018-08-13T17:17:27.436Z,100411.00
2018-08-13T17:20:08.980Z,100404.00
2018-08-13T17:22:41.879Z,100411.00
2018-08-13T17:25:16.172Z,100406.00
2018-08-13T17:27:49.511Z,100408.00
2018-08-13T17:30:23.953Z,100395.00
2018-08-13T17:33:00.360Z,100394.00
2018-08-13T17:35:35.192Z,100390.00
2018-08-13T17:38:08.176Z,100403.00
2018-08-13T17:40:40.919Z,100405.00
2018-08-13T17:43:12.248Z,100412.00
2018-08-13T17:45:42.374Z,100415.00
2018-08-13T17:48:12.923Z,100424.00
2018-08-13T17:50:42.909Z,100423.00
2018-08-13T17:53:14.209Z,100436.00
2018-08-13T17:55:44.073Z,100446.00
2018-08-13T17:58:13.736Z,100455.00
2018-08-13T18:00:43.578Z,100446.00
2018-08-13T18:03:13.310Z,100446.00
2018-08-13T18:05:44.295Z,100456.00
2018-08-13T18:08:15.577Z,100457.00
2018-08-13T18:10:45.567Z,100449.00
2018-08-13T18:13:15.530Z,100444.00
2018-08-13T18:15:45.624Z,100442.00
2018-08-13T18:18:15.499Z,100446.00
2018-08-13T18:20:45.747Z,100448.00
2018-08-13T18:23:16.963Z,100460.00
2018-08-13T18:25:47.407Z,100453.00
2018-08-13T18:28:17.491Z,100461.00
2018-08-13T18:30:47.681Z,100469.00
2018-08-13T18:33:17.616Z,100476.00
2018-08-13T18:35:47.835Z,100472.00
2018-08-13T18:38:18.027Z,100468.00
2018-08-13T18:40:48.193Z,100472.00
2018-08-13T18:43:18.232Z,100476.00
2018-08-13T18:45:48.058Z,100476.00
2018-08-13T18:48:18.251Z,100474.00
2018-08-13T18:50:48.359Z,100478.00
2018-08-13T18:53:18.370Z,100471.00
2018-08-13T18:55:48.222Z,100480.00
2018-08-13T18:58:18.403Z,100473.00
2018-08-13T19:00:53.240Z,100469.00
2018-08-13T19:03:23.292Z,100472.00
2018-08-13T19:05:53.080Z,100474.00
2018-08-13T19:08:23.495Z,100464.00
2018-08-13T19:10:54.449Z,100477.00
2018-08-13T19:13:24.461Z,100477.00
2018-08-13T19:15:54.278Z,100476.00
2018-08-13T19:18:24.739Z,100474.00
2018-08-13T19:20:54.523Z,100479.00
2018-08-13T19:23:24.590Z,100477.00
2018-08-13T19:25:54.659Z,100473.00
2018-08-13T19:28:25.370Z,100485.00
2018-08-13T19:30:55.853Z,100494.00
2018-08-13T19:33:26.107Z,100490.00
2018-08-13T19:35:55.928Z,100493.00
2018-08-13T19:38:26.119Z,100491.00
2018-08-13T19:40:56.084Z,100492.00
2018-08-13T19:43:25.755Z,100495.00
2018-08-13T19:45:56.446Z,100495.00
2018-08-13T19:48:26.714Z,100498.00
2018-08-13T19:50:56.890Z,100504.00
2018-08-13T19:53:26.864Z,100508.00
2018-08-13T19:55:56.822Z,100512.00
2018-08-13T19:58:26.720Z,100504.00
2018-08-13T20:00:56.628Z,100510.00
2018-08-13T20:03:27.191Z,100523.00
2018-08-13T20:05:58.225Z,100524.00
2018-08-13T20:08:29.693Z,100515.00
2018-08-13T20:11:20.487Z,100525.00
2018-08-13T20:13:52.032Z,100527.00
2018-08-13T20:16:22.636Z,100524.00
2018-08-13T20:18:54.308Z,100518.00
2018-08-13T20:21:24.290Z,100519.00
2018-08-13T20:23:54.428Z,100527.00
2018-08-13T20:26:25.773Z,100529.00
2018-08-13T20:28:56.713Z,100528.00
2018-08-13T20:31:26.979Z,100530.00
2018-08-13T20:33:57.311Z,100536.00
2018-08-13T20:36:28.016Z,100531.00
2018-08-13T20:39:02.564Z,100536.00
2018-08-13T20:41:32.631Z,100536.00
2018-08-13T20:44:02.580Z,100540.00
2018-08-13T20:46:32.770Z,100534.00
2018-08-13T20:49:03.016Z,100541.00
2018-08-13T20:51:33.450Z,100540.00
2018-08-13T20:54:03.700Z,100543.00
2018-08-13T20:56:33.986Z,100535.00
2018-08-13T20:59:04.220Z,100540.00
2018-08-13T21:01:34.450Z,100534.00
2018-08-13T21:04:04.267Z,100541.00
2018-08-13T21:06:34.168Z,100544.00
2018-08-13T21:09:07.590Z,100545.00
2018-08-13T21:11:37.590Z,100548.00
2018-08-13T21:14:08.142Z,100549.00
2018-08-13T21:16:37.924Z,100555.00
2018-08-13T21:19:07.922Z,100553.00
2018-08-13T21:21:38.316Z,100556.00
2018-08-13T21:24:08.425Z,100553.00
2018-08-13T21:26:38.487Z,100552.00
2018-08-13T21:29:08.443Z,100554.00
2018-08-13T21:31:38.288Z,100556.00
2018-08-13T21:34:08.246Z,100563.00
2018-08-13T21:36:38.135Z,100563.00
2018-08-13T21:39:09.691Z,100563.00
2018-08-13T21:41:39.732Z,100569.00
2018-08-13T21:44:09.798Z,100574.00
2018-08-13T21:46:39.703Z,100577.00
2018-08-13T21:49:09.450Z,100582.00
2018-08-13T21:51:39.276Z,100590.00
2018-08-13T21:54:09.140Z,100591.00
2018-08-13T21:56:38.903Z,100588.00
2018-08-13T21:59:08.537Z,100598.00
2018-08-13T22:01:43.212Z,100592.00
2018-08-13T22:04:13.155Z,100595.00
2018-08-13T22:06:43.303Z,100596.00
2018-08-13T22:09:13.023Z,100607.00
2018-08-13T22:11:42.707Z,100603.00
2018-08-13T22:14:12.505Z,100606.00
2018-08-13T22:16:42.429Z,100603.00
2018-08-13T22:19:12.334Z,100594.00
2018-08-13T22:21:42.143Z,100605.00
2018-08-13T22:24:28.452Z,100607.00
2018-08-13T22:26:58.171Z,100605.00
2018-08-13T22:29:27.858Z,100605.00
2018-08-13T22:31:57.568Z,100605.00
2018-08-13T22:34:27.218Z,100608.00
2018-08-13T22:36:56.938Z,100609.00
2018-08-13T22:39:26.670Z,100610.00
2018-08-13T22:41:56.468Z,100616.00
2018-08-13T22:44:26.184Z,100610.00
2018-08-13T22:46:55.886Z,100618.00
2018-08-13T22:49:25.676Z,100614.00
2018-08-13T22:51:55.412Z,100620.00
2018-08-13T22:54:25.091Z,100613.00
2018-08-13T22:56:54.805Z,100626.00
2018-08-13T22:59:24.532Z,100627.00
2018-08-13T23:01:54.214Z,100617.00
2018-08-13T23:04:23.941Z,100618.00
2018-08-13T23:06:53.561Z,100616.00
2018-08-13T23:09:23.385Z,100624.00
2018-08-13T23:11:53.119Z,100622.00
2018-08-13T23:14:22.967Z,100631.00
2018-08-13T23:16:52.789Z,100631.00
2018-08-13T23:19:22.523Z,100632.00
2018-08-13T23:21:52.251Z,100629.00
2018-08-13T23:24:22.063Z,100631.00
2018-08-13T23:26:51.809Z,100636.00
2018-08-13T23:29:21.578Z,100637.00
2018-08-13T23:31:51.258Z,100649.00
2018-08-13T23:34:20.969Z,100641.00
2018-08-13T23:36:50.900Z,100641.00
2018-08-13T23:39:20.702Z,100653.00
2018-08-13T23:41:50.488Z,100652.00
2018-08-13T23:44:20.163Z,100651.00
2018-08-13T23:46:49.988Z,100654.00
2018-08-13T23:49:19.630Z,100651.00
2018-08-13T23:51:49.304Z,100651.00
2018-08-13T23:54:19.006Z,100648.00
2018-08-13T23:56:48.765Z,100651.00
2018-08-13T23:59:18.539Z,100657.00
